Airfield :
LOGIN :

Register | Disclaimer

   EN    FR    IT 

 










Legend :    VFR   Marginal VFR   IFR   Intensive IFR   Very Intensive IFR
Visi :
Ceiling :
>= 8 km
>= 3000ft
5 to 8 km
1000 to 3000 ft
1500m to 5 km
500 to 1000 ft
800 to 1500m
200 to 500 ft
< 800m
< 200 ft
Symbols :   Thunderstorms  Fog  Heavy snow  Heavy precipitations  Wind > 20 kt
SIGMETs :     Misc.  Thunderstorms  Icing  Turbulence  Mountain Waves  Volcanic Ashes






- Airport Elevation : 1791 ft
- IATA code : AOT


LIMW - Aosta

CURRENT METAR :
  • 211620Z 25014KT CAVOK 23/04 Q1006

EXPIRED METARs :
  • 211550Z 24015KT CAVOK 24/04 Q1005
  • 211520Z 27012KT CAVOK 24/03 Q1005
  • 211450Z 26017KT CAVOK 25/03 Q1005
  • 211420Z 23013KT CAVOK 25/03 Q1005
  • 211350Z 24012KT CAVOK 25/03 Q1005
  • 211320Z 25015KT CAVOK 25/03 Q1005
  • 211250Z 25015KT CAVOK 23/02 Q1005
  • 211220Z 24010KT CAVOK 23/04 Q1005
  • 211150Z 29009KT 260V330 9999 SCT099 23/05 Q1006

TAF TAF LIMW
Valid from the 21 at 15:00 until the 22 at 00:00 UTC


211400Z 2115/2124 28012KT CAVOK
BECMG 2118/2120 VRB05KT



MET'MAP, your aeronautical weather chart ! - Copyright ORBIFLY December 2007 - Disclaimer

ORBIFLY MET'MAP TEAM :

Programming & Development : Alexandra Zaïnal
Original concept : Baudouin d'Aumeries
Technical & hardware support : Manuel Goepfert
Assistance : Marc-Olivier Méhu




SOURCES & CREDITS :

   NOAA